sensor_id;sensor_type;location;lat;lon;timestamp;temperature;humidity
76263;DHT22;65080;50.908;6.916;2023-03-15T00:00:13;4.50;61.90
76263;DHT22;65080;50.908;6.916;2023-03-15T00:02:43;4.50;62.00
76263;DHT22;65080;50.908;6.916;2023-03-15T00:05:12;4.50;62.00
76263;DHT22;65080;50.908;6.916;2023-03-15T00:07:42;4.50;62.00
76263;DHT22;65080;50.908;6.916;2023-03-15T00:10:11;4.50;62.10
76263;DHT22;65080;50.908;6.916;2023-03-15T00:12:41;4.50;62.20
76263;DHT22;65080;50.908;6.916;2023-03-15T00:15:12;4.50;62.40
76263;DHT22;65080;50.908;6.916;2023-03-15T00:17:43;4.50;62.60
76263;DHT22;65080;50.908;6.916;2023-03-15T00:20:12;4.50;62.60
76263;DHT22;65080;50.908;6.916;2023-03-15T00:22:41;4.50;62.80
76263;DHT22;65080;50.908;6.916;2023-03-15T00:25:10;4.60;63.00
76263;DHT22;65080;50.908;6.916;2023-03-15T00:27:38;4.60;63.00
76263;DHT22;65080;50.908;6.916;2023-03-15T00:30:08;4.60;63.00
76263;DHT22;65080;50.908;6.916;2023-03-15T00:32:36;4.70;63.20
76263;DHT22;65080;50.908;6.916;2023-03-15T00:35:06;4.70;63.20
76263;DHT22;65080;50.908;6.916;2023-03-15T00:37:36;4.70;63.30
76263;DHT22;65080;50.908;6.916;2023-03-15T00:40:05;4.70;63.40
76263;DHT22;65080;50.908;6.916;2023-03-15T00:42:33;4.70;63.40
76263;DHT22;65080;50.908;6.916;2023-03-15T00:45:02;4.70;63.50
76263;DHT22;65080;50.908;6.916;2023-03-15T00:47:30;4.80;63.70
76263;DHT22;65080;50.908;6.916;2023-03-15T00:49:59;4.80;63.70
76263;DHT22;65080;50.908;6.916;2023-03-15T00:52:33;4.90;64.60
76263;DHT22;65080;50.908;6.916;2023-03-15T00:55:02;4.90;63.70
76263;DHT22;65080;50.908;6.916;2023-03-15T00:57:31;5.00;63.80
76263;DHT22;65080;50.908;6.916;2023-03-15T01:00:00;5.00;63.80
76263;DHT22;65080;50.908;6.916;2023-03-15T01:02:34;5.00;63.80
76263;DHT22;65080;50.908;6.916;2023-03-15T01:05:04;5.10;63.80
76263;DHT22;65080;50.908;6.916;2023-03-15T01:07:34;5.00;63.70
76263;DHT22;65080;50.908;6.916;2023-03-15T01:10:05;5.00;63.80
76263;DHT22;65080;50.908;6.916;2023-03-15T01:12:34;5.10;64.00
76263;DHT22;65080;50.908;6.916;2023-03-15T01:15:04;5.10;64.30
76263;DHT22;65080;50.908;6.916;2023-03-15T01:17:33;5.10;64.40
76263;DHT22;65080;50.908;6.916;2023-03-15T01:20:02;5.20;64.60
76263;DHT22;65080;50.908;6.916;2023-03-15T01:22:33;5.20;64.70
76263;DHT22;65080;50.908;6.916;2023-03-15T01:25:02;5.30;64.80
76263;DHT22;65080;50.908;6.916;2023-03-15T01:27:30;5.40;65.00
76263;DHT22;65080;50.908;6.916;2023-03-15T01:29:58;5.40;65.00
76263;DHT22;65080;50.908;6.916;2023-03-15T01:32:26;5.30;64.70
76263;DHT22;65080;50.908;6.916;2023-03-15T01:34:55;5.30;64.90
76263;DHT22;65080;50.908;6.916;2023-03-15T01:37:23;5.30;65.10
76263;DHT22;65080;50.908;6.916;2023-03-15T01:39:54;5.30;65.20
76263;DHT22;65080;50.908;6.916;2023-03-15T01:42:22;5.20;65.30
76263;DHT22;65080;50.908;6.916;2023-03-15T01:44:53;5.00;65.60
76263;DHT22;65080;50.908;6.916;2023-03-15T01:47:22;4.90;66.00
76263;DHT22;65080;50.908;6.916;2023-03-15T01:49:56;4.80;66.60
76263;DHT22;65080;50.908;6.916;2023-03-15T01:52:28;4.70;67.30
76263;DHT22;65080;50.908;6.916;2023-03-15T01:55:04;4.60;67.90
76263;DHT22;65080;50.908;6.916;2023-03-15T01:57:36;4.60;68.70
76263;DHT22;65080;50.908;6.916;2023-03-15T02:00:08;4.50;69.20
76263;DHT22;65080;50.908;6.916;2023-03-15T02:02:39;4.50;69.70
76263;DHT22;65080;50.908;6.916;2023-03-15T02:05:16;4.50;70.40
76263;DHT22;65080;50.908;6.916;2023-03-15T02:07:47;4.50;71.50
76263;DHT22;65080;50.908;6.916;2023-03-15T02:10:21;4.50;71.20
76263;DHT22;65080;50.908;6.916;2023-03-15T02:12:51;4.50;71.60
76263;DHT22;65080;50.908;6.916;2023-03-15T02:15:20;4.50;72.10
76263;DHT22;65080;50.908;6.916;2023-03-15T02:17:48;4.50;72.40
76263;DHT22;65080;50.908;6.916;2023-03-15T02:20:25;4.40;72.60
76263;DHT22;65080;50.908;6.916;2023-03-15T02:22:59;4.30;73.00
76263;DHT22;65080;50.908;6.916;2023-03-15T02:25:35;4.20;73.40
76263;DHT22;65080;50.908;6.916;2023-03-15T02:28:10;4.10;73.50
76263;DHT22;65080;50.908;6.916;2023-03-15T02:30:39;4.00;73.90
76263;DHT22;65080;50.908;6.916;2023-03-15T02:33:13;3.90;74.40
76263;DHT22;65080;50.908;6.916;2023-03-15T02:35:42;3.80;74.70
76263;DHT22;65080;50.908;6.916;2023-03-15T02:38:11;3.80;75.30
76263;DHT22;65080;50.908;6.916;2023-03-15T02:40:39;3.70;75.50
76263;DHT22;65080;50.908;6.916;2023-03-15T02:43:13;3.60;75.90
76263;DHT22;65080;50.908;6.916;2023-03-15T02:45:42;3.50;76.40
76263;DHT22;65080;50.908;6.916;2023-03-15T02:48:12;3.50;76.90
76263;DHT22;65080;50.908;6.916;2023-03-15T02:50:40;3.50;77.10
76263;DHT22;65080;50.908;6.916;2023-03-15T02:53:09;3.40;77.50
76263;DHT22;65080;50.908;6.916;2023-03-15T02:55:38;3.40;77.90
76263;DHT22;65080;50.908;6.916;2023-03-15T02:58:06;3.40;78.30
76263;DHT22;65080;50.908;6.916;2023-03-15T03:00:36;3.40;78.70
76263;DHT22;65080;50.908;6.916;2023-03-15T03:03:05;3.40;78.90
76263;DHT22;65080;50.908;6.916;2023-03-15T03:05:35;3.40;79.00
76263;DHT22;65080;50.908;6.916;2023-03-15T03:08:03;3.40;79.20
76263;DHT22;65080;50.908;6.916;2023-03-15T03:10:31;3.40;79.50
76263;DHT22;65080;50.908;6.916;2023-03-15T03:13:00;3.40;79.80
76263;DHT22;65080;50.908;6.916;2023-03-15T03:15:28;3.30;79.80
76263;DHT22;65080;50.908;6.916;2023-03-15T03:17:58;3.30;80.00
76263;DHT22;65080;50.908;6.916;2023-03-15T03:20:26;3.40;80.40
76263;DHT22;65080;50.908;6.916;2023-03-15T03:22:55;3.40;80.40
76263;DHT22;65080;50.908;6.916;2023-03-15T03:25:23;3.40;80.60
76263;DHT22;65080;50.908;6.916;2023-03-15T03:27:53;3.40;80.90
76263;DHT22;65080;50.908;6.916;2023-03-15T03:30:23;3.40;81.00
76263;DHT22;65080;50.908;6.916;2023-03-15T03:32:52;3.40;81.00
76263;DHT22;65080;50.908;6.916;2023-03-15T03:35:21;3.40;81.00
76263;DHT22;65080;50.908;6.916;2023-03-15T03:37:50;3.30;80.90
76263;DHT22;65080;50.908;6.916;2023-03-15T03:40:20;3.30;81.30
76263;DHT22;65080;50.908;6.916;2023-03-15T03:42:48;3.30;81.60
76263;DHT22;65080;50.908;6.916;2023-03-15T03:45:16;3.30;81.60
76263;DHT22;65080;50.908;6.916;2023-03-15T03:47:44;3.20;81.50
76263;DHT22;65080;50.908;6.916;2023-03-15T03:50:13;3.20;81.60
76263;DHT22;65080;50.908;6.916;2023-03-15T03:52:43;3.20;81.90
76263;DHT22;65080;50.908;6.916;2023-03-15T03:55:11;3.20;82.00
76263;DHT22;65080;50.908;6.916;2023-03-15T03:57:41;3.10;82.10
76263;DHT22;65080;50.908;6.916;2023-03-15T04:00:12;3.10;82.40
76263;DHT22;65080;50.908;6.916;2023-03-15T04:02:41;3.00;82.40
76263;DHT22;65080;50.908;6.916;2023-03-15T04:05:10;3.00;82.60
76263;DHT22;65080;50.908;6.916;2023-03-15T04:07:38;3.00;82.90
76263;DHT22;65080;50.908;6.916;2023-03-15T04:10:10;3.10;83.20
76263;DHT22;65080;50.908;6.916;2023-03-15T04:12:41;3.10;83.10
76263;DHT22;65080;50.908;6.916;2023-03-15T04:15:10;3.10;83.20
76263;DHT22;65080;50.908;6.916;2023-03-15T04:17:39;3.10;83.30
76263;DHT22;65080;50.908;6.916;2023-03-15T04:20:09;3.10;83.40
76263;DHT22;65080;50.908;6.916;2023-03-15T04:22:38;3.00;83.40
76263;DHT22;65080;50.908;6.916;2023-03-15T04:25:08;3.10;83.60
76263;DHT22;65080;50.908;6.916;2023-03-15T04:27:36;3.10;83.90
76263;DHT22;65080;50.908;6.916;2023-03-15T04:30:05;3.10;83.90
76263;DHT22;65080;50.908;6.916;2023-03-15T04:32:34;3.10;84.00
76263;DHT22;65080;50.908;6.916;2023-03-15T04:35:03;3.10;84.00
76263;DHT22;65080;50.908;6.916;2023-03-15T04:37:31;3.10;84.20
76263;DHT22;65080;50.908;6.916;2023-03-15T04:39:59;3.20;84.20
76263;DHT22;65080;50.908;6.916;2023-03-15T04:42:29;3.20;84.60
76263;DHT22;65080;50.908;6.916;2023-03-15T04:44:58;3.20;84.70
76263;DHT22;65080;50.908;6.916;2023-03-15T04:47:26;3.30;84.80
76263;DHT22;65080;50.908;6.916;2023-03-15T04:49:54;3.30;84.50
76263;DHT22;65080;50.908;6.916;2023-03-15T04:52:23;3.30;83.90
76263;DHT22;65080;50.908;6.916;2023-03-15T04:54:51;3.20;83.90
76263;DHT22;65080;50.908;6.916;2023-03-15T04:57:19;3.10;83.70
76263;DHT22;65080;50.908;6.916;2023-03-15T04:59:49;3.00;83.60
76263;DHT22;65080;50.908;6.916;2023-03-15T05:02:17;2.90;83.80
76263;DHT22;65080;50.908;6.916;2023-03-15T05:04:45;2.90;84.20
76263;DHT22;65080;50.908;6.916;2023-03-15T05:07:14;2.90;84.70
76263;DHT22;65080;50.908;6.916;2023-03-15T05:09:42;2.90;85.00
76263;DHT22;65080;50.908;6.916;2023-03-15T05:12:12;2.90;85.10
76263;DHT22;65080;50.908;6.916;2023-03-15T05:14:40;3.00;85.30
76263;DHT22;65080;50.908;6.916;2023-03-15T05:17:10;3.00;85.30
76263;DHT22;65080;50.908;6.916;2023-03-15T05:19:38;3.10;85.50
76263;DHT22;65080;50.908;6.916;2023-03-15T05:22:08;3.20;85.70
76263;DHT22;65080;50.908;6.916;2023-03-15T05:24:36;3.20;85.40
76263;DHT22;65080;50.908;6.916;2023-03-15T05:27:05;3.20;85.40
76263;DHT22;65080;50.908;6.916;2023-03-15T05:29:33;3.20;85.50
76263;DHT22;65080;50.908;6.916;2023-03-15T05:32:01;3.30;85.80
76263;DHT22;65080;50.908;6.916;2023-03-15T05:34:31;3.30;85.80
76263;DHT22;65080;50.908;6.916;2023-03-15T05:37:00;3.30;85.90
76263;DHT22;65080;50.908;6.916;2023-03-15T05:39:28;3.40;86.00
76263;DHT22;65080;50.908;6.916;2023-03-15T05:42:00;3.40;86.20
76263;DHT22;65080;50.908;6.916;2023-03-15T05:44:28;3.50;86.30
76263;DHT22;65080;50.908;6.916;2023-03-15T05:46:57;3.50;86.30
76263;DHT22;65080;50.908;6.916;2023-03-15T05:49:25;3.50;86.10
76263;DHT22;65080;50.908;6.916;2023-03-15T05:51:55;3.50;86.20
76263;DHT22;65080;50.908;6.916;2023-03-15T05:54:23;3.60;86.40
76263;DHT22;65080;50.908;6.916;2023-03-15T05:56:51;3.60;86.20
76263;DHT22;65080;50.908;6.916;2023-03-15T05:59:20;3.60;86.30
76263;DHT22;65080;50.908;6.916;2023-03-15T06:01:48;3.60;86.50
76263;DHT22;65080;50.908;6.916;2023-03-15T06:04:16;3.70;86.70
76263;DHT22;65080;50.908;6.916;2023-03-15T06:06:45;3.70;86.60
76263;DHT22;65080;50.908;6.916;2023-03-15T06:09:14;3.70;86.70
76263;DHT22;65080;50.908;6.916;2023-03-15T06:11:43;3.80;86.80
76263;DHT22;65080;50.908;6.916;2023-03-15T06:14:11;3.80;86.80
76263;DHT22;65080;50.908;6.916;2023-03-15T06:16:39;3.80;86.50
76263;DHT22;65080;50.908;6.916;2023-03-15T06:19:07;3.80;86.60
76263;DHT22;65080;50.908;6.916;2023-03-15T06:21:36;3.80;86.60
76263;DHT22;65080;50.908;6.916;2023-03-15T06:24:04;3.90;86.80
76263;DHT22;65080;50.908;6.916;2023-03-15T06:26:34;3.90;86.80
76263;DHT22;65080;50.908;6.916;2023-03-15T06:29:03;3.90;86.80
76263;DHT22;65080;50.908;6.916;2023-03-15T06:31:31;3.90;86.90
76263;DHT22;65080;50.908;6.916;2023-03-15T06:33:59;4.00;86.90
76263;DHT22;65080;50.908;6.916;2023-03-15T06:36:28;4.00;86.90
76263;DHT22;65080;50.908;6.916;2023-03-15T06:38:57;4.00;86.90
76263;DHT22;65080;50.908;6.916;2023-03-15T06:41:26;4.00;86.80
76263;DHT22;65080;50.908;6.916;2023-03-15T06:43:56;4.10;86.70
76263;DHT22;65080;50.908;6.916;2023-03-15T06:46:24;4.10;86.60
76263;DHT22;65080;50.908;6.916;2023-03-15T06:48:52;4.10;86.60
76263;DHT22;65080;50.908;6.916;2023-03-15T06:51:21;4.10;86.50
76263;DHT22;65080;50.908;6.916;2023-03-15T06:53:49;4.10;86.50
76263;DHT22;65080;50.908;6.916;2023-03-15T06:56:17;4.10;86.40
76263;DHT22;65080;50.908;6.916;2023-03-15T06:58:47;4.10;86.40
76263;DHT22;65080;50.908;6.916;2023-03-15T07:01:17;4.10;86.40
76263;DHT22;65080;50.908;6.916;2023-03-15T07:03:45;4.10;86.40
76263;DHT22;65080;50.908;6.916;2023-03-15T07:06:13;4.10;86.00
76263;DHT22;65080;50.908;6.916;2023-03-15T07:08:42;4.10;86.10
76263;DHT22;65080;50.908;6.916;2023-03-15T07:11:10;4.10;86.40
76263;DHT22;65080;50.908;6.916;2023-03-15T07:13:38;4.10;87.20
76263;DHT22;65080;50.908;6.916;2023-03-15T07:16:06;4.10;86.70
76263;DHT22;65080;50.908;6.916;2023-03-15T07:18:36;4.20;86.80
76263;DHT22;65080;50.908;6.916;2023-03-15T07:21:04;4.20;86.80
76263;DHT22;65080;50.908;6.916;2023-03-15T07:23:34;4.30;86.90
76263;DHT22;65080;50.908;6.916;2023-03-15T07:26:02;4.30;86.90
76263;DHT22;65080;50.908;6.916;2023-03-15T07:28:31;4.30;86.80
76263;DHT22;65080;50.908;6.916;2023-03-15T07:31:00;4.40;86.90
76263;DHT22;65080;50.908;6.916;2023-03-15T07:33:30;4.40;86.80
76263;DHT22;65080;50.908;6.916;2023-03-15T07:36:01;4.40;86.50
76263;DHT22;65080;50.908;6.916;2023-03-15T07:38:30;4.40;86.40
76263;DHT22;65080;50.908;6.916;2023-03-15T07:41:00;4.40;86.50
76263;DHT22;65080;50.908;6.916;2023-03-15T07:43:29;4.50;86.50
76263;DHT22;65080;50.908;6.916;2023-03-15T07:45:57;4.50;86.50
76263;DHT22;65080;50.908;6.916;2023-03-15T07:48:25;4.50;86.50
76263;DHT22;65080;50.908;6.916;2023-03-15T07:50:55;4.50;86.50
76263;DHT22;65080;50.908;6.916;2023-03-15T07:53:25;4.50;86.20
76263;DHT22;65080;50.908;6.916;2023-03-15T07:55:53;4.50;86.00
76263;DHT22;65080;50.908;6.916;2023-03-15T07:58:21;4.50;85.90
76263;DHT22;65080;50.908;6.916;2023-03-15T08:00:52;4.50;86.10
76263;DHT22;65080;50.908;6.916;2023-03-15T08:03:21;4.50;86.30
76263;DHT22;65080;50.908;6.916;2023-03-15T08:05:50;4.60;86.50
76263;DHT22;65080;50.908;6.916;2023-03-15T08:08:18;4.60;86.10
76263;DHT22;65080;50.908;6.916;2023-03-15T08:10:48;4.50;85.80
76263;DHT22;65080;50.908;6.916;2023-03-15T08:13:16;4.50;86.00
76263;DHT22;65080;50.908;6.916;2023-03-15T08:15:44;4.50;86.10
76263;DHT22;65080;50.908;6.916;2023-03-15T08:18:13;4.50;86.10
76263;DHT22;65080;50.908;6.916;2023-03-15T08:20:41;4.50;86.20
76263;DHT22;65080;50.908;6.916;2023-03-15T08:23:10;4.50;86.20
76263;DHT22;65080;50.908;6.916;2023-03-15T08:25:43;4.50;86.20
76263;DHT22;65080;50.908;6.916;2023-03-15T08:28:13;4.50;86.20
76263;DHT22;65080;50.908;6.916;2023-03-15T08:30:41;4.60;86.30
76263;DHT22;65080;50.908;6.916;2023-03-15T08:33:09;4.60;86.50
76263;DHT22;65080;50.908;6.916;2023-03-15T08:35:38;4.70;86.60
76263;DHT22;65080;50.908;6.916;2023-03-15T08:38:08;4.70;86.50
76263;DHT22;65080;50.908;6.916;2023-03-15T08:40:36;4.70;86.30
76263;DHT22;65080;50.908;6.916;2023-03-15T08:43:05;4.70;86.40
76263;DHT22;65080;50.908;6.916;2023-03-15T08:45:36;4.70;86.30
76263;DHT22;65080;50.908;6.916;2023-03-15T08:48:24;4.70;85.90
76263;DHT22;65080;50.908;6.916;2023-03-15T08:50:53;4.70;85.70
76263;DHT22;65080;50.908;6.916;2023-03-15T08:53:21;4.70;85.80
76263;DHT22;65080;50.908;6.916;2023-03-15T08:55:49;4.60;85.80
76263;DHT22;65080;50.908;6.916;2023-03-15T08:58:17;4.70;86.10
76263;DHT22;65080;50.908;6.916;2023-03-15T09:00:47;4.80;86.10
76263;DHT22;65080;50.908;6.916;2023-03-15T09:03:15;4.80;86.10
76263;DHT22;65080;50.908;6.916;2023-03-15T09:05:44;4.80;85.90
76263;DHT22;65080;50.908;6.916;2023-03-15T09:08:12;4.90;86.10
76263;DHT22;65080;50.908;6.916;2023-03-15T09:10:42;4.90;86.00
76263;DHT22;65080;50.908;6.916;2023-03-15T09:13:11;4.90;85.70
76263;DHT22;65080;50.908;6.916;2023-03-15T09:15:39;4.90;85.70
76263;DHT22;65080;50.908;6.916;2023-03-15T09:18:09;4.90;85.80
76263;DHT22;65080;50.908;6.916;2023-03-15T09:20:37;5.00;85.70
76263;DHT22;65080;50.908;6.916;2023-03-15T09:23:05;5.00;85.50
76263;DHT22;65080;50.908;6.916;2023-03-15T09:25:33;5.10;85.80
76263;DHT22;65080;50.908;6.916;2023-03-15T09:28:03;5.20;85.90
76263;DHT22;65080;50.908;6.916;2023-03-15T09:30:31;5.20;85.70
76263;DHT22;65080;50.908;6.916;2023-03-15T09:33:00;5.30;85.50
76263;DHT22;65080;50.908;6.916;2023-03-15T09:35:30;5.30;85.20
76263;DHT22;65080;50.908;6.916;2023-03-15T09:37:59;5.30;85.10
76263;DHT22;65080;50.908;6.916;2023-03-15T09:40:32;5.40;85.20
76263;DHT22;65080;50.908;6.916;2023-03-15T09:43:03;5.50;85.30
76263;DHT22;65080;50.908;6.916;2023-03-15T09:45:52;5.50;84.60
76263;DHT22;65080;50.908;6.916;2023-03-15T09:48:26;5.60;84.30
76263;DHT22;65080;50.908;6.916;2023-03-15T09:51:03;5.60;84.00
76263;DHT22;65080;50.908;6.916;2023-03-15T09:53:37;5.60;83.70
76263;DHT22;65080;50.908;6.916;2023-03-15T09:56:19;5.50;83.40
76263;DHT22;65080;50.908;6.916;2023-03-15T09:58:50;5.60;83.80
76263;DHT22;65080;50.908;6.916;2023-03-15T10:01:21;5.60;83.60
76263;DHT22;65080;50.908;6.916;2023-03-15T10:03:52;5.60;83.40
76263;DHT22;65080;50.908;6.916;2023-03-15T10:06:25;5.60;83.40
76263;DHT22;65080;50.908;6.916;2023-03-15T10:08:57;5.70;83.50
76263;DHT22;65080;50.908;6.916;2023-03-15T10:11:32;5.70;83.30
76263;DHT22;65080;50.908;6.916;2023-03-15T10:14:12;5.90;82.70
76263;DHT22;65080;50.908;6.916;2023-03-15T10:16:44;5.90;82.30
76263;DHT22;65080;50.908;6.916;2023-03-15T10:19:17;6.00;82.10
76263;DHT22;65080;50.908;6.916;2023-03-15T10:21:55;6.00;81.90
76263;DHT22;65080;50.908;6.916;2023-03-15T10:24:32;6.10;81.50
76263;DHT22;65080;50.908;6.916;2023-03-15T10:27:11;6.10;81.10
76263;DHT22;65080;50.908;6.916;2023-03-15T10:29:42;6.20;80.90
76263;DHT22;65080;50.908;6.916;2023-03-15T10:32:15;6.20;80.60
76263;DHT22;65080;50.908;6.916;2023-03-15T10:34:47;6.20;80.40
76263;DHT22;65080;50.908;6.916;2023-03-15T10:37:18;6.30;80.10
76263;DHT22;65080;50.908;6.916;2023-03-15T10:39:53;6.40;79.40
76263;DHT22;65080;50.908;6.916;2023-03-15T10:42:27;6.40;79.00
76263;DHT22;65080;50.908;6.916;2023-03-15T10:44:57;6.50;78.00
76263;DHT22;65080;50.908;6.916;2023-03-15T10:47:26;6.50;77.30
76263;DHT22;65080;50.908;6.916;2023-03-15T10:49:56;6.40;77.00
76263;DHT22;65080;50.908;6.916;2023-03-15T10:52:32;6.60;77.10
76263;DHT22;65080;50.908;6.916;2023-03-15T10:55:05;6.70;76.90
76263;DHT22;65080;50.908;6.916;2023-03-15T10:57:38;6.90;76.80
76263;DHT22;65080;50.908;6.916;2023-03-15T11:00:20;7.00;76.30
76263;DHT22;65080;50.908;6.916;2023-03-15T11:02:53;7.10;75.50
76263;DHT22;65080;50.908;6.916;2023-03-15T11:05:30;7.20;75.10
76263;DHT22;65080;50.908;6.916;2023-03-15T11:08:00;7.20;74.40
76263;DHT22;65080;50.908;6.916;2023-03-15T11:10:33;7.30;74.10
76263;DHT22;65080;50.908;6.916;2023-03-15T11:13:19;7.30;73.50
76263;DHT22;65080;50.908;6.916;2023-03-15T11:15:55;7.30;72.80
76263;DHT22;65080;50.908;6.916;2023-03-15T11:18:34;7.30;73.00
76263;DHT22;65080;50.908;6.916;2023-03-15T11:21:05;7.30;72.70
76263;DHT22;65080;50.908;6.916;2023-03-15T11:23:40;7.30;72.60
76263;DHT22;65080;50.908;6.916;2023-03-15T11:26:16;7.30;72.50
76263;DHT22;65080;50.908;6.916;2023-03-15T11:29:00;7.30;71.50
76263;DHT22;65080;50.908;6.916;2023-03-15T11:31:31;7.30;71.00
76263;DHT22;65080;50.908;6.916;2023-03-15T11:34:05;7.30;70.30
76263;DHT22;65080;50.908;6.916;2023-03-15T11:36:38;7.30;69.20
76263;DHT22;65080;50.908;6.916;2023-03-15T11:39:12;7.30;68.20
76263;DHT22;65080;50.908;6.916;2023-03-15T11:41:46;7.30;68.10
76263;DHT22;65080;50.908;6.916;2023-03-15T11:44:24;7.30;67.50
76263;DHT22;65080;50.908;6.916;2023-03-15T11:46:58;7.40;66.90
76263;DHT22;65080;50.908;6.916;2023-03-15T11:49:34;7.50;66.50
76263;DHT22;65080;50.908;6.916;2023-03-15T11:52:04;7.50;65.80
76263;DHT22;65080;50.908;6.916;2023-03-15T11:54:34;7.60;65.80
76263;DHT22;65080;50.908;6.916;2023-03-15T11:57:05;7.60;65.40
76263;DHT22;65080;50.908;6.916;2023-03-15T11:59:37;7.60;64.90
76263;DHT22;65080;50.908;6.916;2023-03-15T12:02:34;7.60;64.00
76263;DHT22;65080;50.908;6.916;2023-03-15T12:05:04;7.60;61.90
76263;DHT22;65080;50.908;6.916;2023-03-15T12:07:58;7.70;62.00
76263;DHT22;65080;50.908;6.916;2023-03-15T12:10:42;7.70;60.60
76263;DHT22;65080;50.908;6.916;2023-03-15T12:13:19;7.80;59.90
76263;DHT22;65080;50.908;6.916;2023-03-15T12:15:50;7.80;59.80
76263;DHT22;65080;50.908;6.916;2023-03-15T12:18:37;7.90;59.70
76263;DHT22;65080;50.908;6.916;2023-03-15T12:21:13;8.00;58.60
76263;DHT22;65080;50.908;6.916;2023-03-15T12:23:56;8.10;58.30
76263;DHT22;65080;50.908;6.916;2023-03-15T12:26:37;8.10;57.40
76263;DHT22;65080;50.908;6.916;2023-03-15T12:29:20;8.10;56.70
76263;DHT22;65080;50.908;6.916;2023-03-15T12:31:55;8.10;56.30
76263;DHT22;65080;50.908;6.916;2023-03-15T12:34:28;8.10;56.20
76263;DHT22;65080;50.908;6.916;2023-03-15T12:37:01;8.10;56.00
76263;DHT22;65080;50.908;6.916;2023-03-15T12:39:44;8.10;55.70
76263;DHT22;65080;50.908;6.916;2023-03-15T12:45:43;8.30;54.40
76263;DHT22;65080;50.908;6.916;2023-03-15T12:48:26;8.40;54.80
76263;DHT22;65080;50.908;6.916;2023-03-15T12:51:04;8.40;54.10
76263;DHT22;65080;50.908;6.916;2023-03-15T12:53:46;8.40;54.20
76263;DHT22;65080;50.908;6.916;2023-03-15T12:56:44;8.40;54.30
76263;DHT22;65080;50.908;6.916;2023-03-15T12:59:29;8.50;54.20
76263;DHT22;65080;50.908;6.916;2023-03-15T13:02:02;8.60;54.70
76263;DHT22;65080;50.908;6.916;2023-03-15T13:04:36;8.70;54.80
76263;DHT22;65080;50.908;6.916;2023-03-15T13:07:16;8.70;54.70
76263;DHT22;65080;50.908;6.916;2023-03-15T13:09:59;8.80;54.30
76263;DHT22;65080;50.908;6.916;2023-03-15T13:12:35;8.80;54.00
76263;DHT22;65080;50.908;6.916;2023-03-15T13:15:11;8.90;53.80
76263;DHT22;65080;50.908;6.916;2023-03-15T13:17:49;8.90;53.20
76263;DHT22;65080;50.908;6.916;2023-03-15T13:20:37;9.00;52.70
76263;DHT22;65080;50.908;6.916;2023-03-15T13:23:13;9.10;52.10
76263;DHT22;65080;50.908;6.916;2023-03-15T13:25:50;9.20;51.90
76263;DHT22;65080;50.908;6.916;2023-03-15T13:28:21;9.30;51.90
76263;DHT22;65080;50.908;6.916;2023-03-15T13:30:53;9.40;51.90
76263;DHT22;65080;50.908;6.916;2023-03-15T13:33:23;9.50;51.70
76263;DHT22;65080;50.908;6.916;2023-03-15T13:35:54;9.60;51.80
76263;DHT22;65080;50.908;6.916;2023-03-15T13:38:27;9.80;51.60
76263;DHT22;65080;50.908;6.916;2023-03-15T13:40:56;10.00;50.60
76263;DHT22;65080;50.908;6.916;2023-03-15T13:43:26;10.30;50.50
76263;DHT22;65080;50.908;6.916;2023-03-15T13:45:59;10.50;50.20
76263;DHT22;65080;50.908;6.916;2023-03-15T13:48:29;10.70;49.80
76263;DHT22;65080;50.908;6.916;2023-03-15T13:51:02;11.00;49.70
76263;DHT22;65080;50.908;6.916;2023-03-15T13:53:34;11.40;49.10
76263;DHT22;65080;50.908;6.916;2023-03-15T13:56:17;11.60;48.50
76263;DHT22;65080;50.908;6.916;2023-03-15T13:58:47;12.00;48.50
76263;DHT22;65080;50.908;6.916;2023-03-15T14:01:19;12.20;48.00
76263;DHT22;65080;50.908;6.916;2023-03-15T14:03:56;12.50;47.20
76263;DHT22;65080;50.908;6.916;2023-03-15T14:06:26;12.60;46.50
76263;DHT22;65080;50.908;6.916;2023-03-15T14:09:00;12.90;46.50
76263;DHT22;65080;50.908;6.916;2023-03-15T14:11:35;13.00;45.30
76263;DHT22;65080;50.908;6.916;2023-03-15T14:14:21;13.20;44.80
76263;DHT22;65080;50.908;6.916;2023-03-15T14:16:52;13.30;43.30
76263;DHT22;65080;50.908;6.916;2023-03-15T14:19:33;13.50;44.00
76263;DHT22;65080;50.908;6.916;2023-03-15T14:22:11;13.70;43.60
76263;DHT22;65080;50.908;6.916;2023-03-15T14:24:43;13.90;43.20
76263;DHT22;65080;50.908;6.916;2023-03-15T14:27:15;13.90;42.50
76263;DHT22;65080;50.908;6.916;2023-03-15T14:29:46;14.10;41.80
76263;DHT22;65080;50.908;6.916;2023-03-15T14:32:26;14.10;41.40
76263;DHT22;65080;50.908;6.916;2023-03-15T14:35:04;14.00;40.40
76263;DHT22;65080;50.908;6.916;2023-03-15T14:37:37;13.70;40.00
76263;DHT22;65080;50.908;6.916;2023-03-15T14:40:14;13.50;40.00
76263;DHT22;65080;50.908;6.916;2023-03-15T14:42:43;13.30;39.30
76263;DHT22;65080;50.908;6.916;2023-03-15T14:47:50;13.10;39.00
76263;DHT22;65080;50.908;6.916;2023-03-15T14:50:26;13.10;39.10
76263;DHT22;65080;50.908;6.916;2023-03-15T14:52:56;13.10;38.20
76263;DHT22;65080;50.908;6.916;2023-03-15T14:55:28;13.10;38.10
76263;DHT22;65080;50.908;6.916;2023-03-15T14:57:57;13.20;38.10
76263;DHT22;65080;50.908;6.916;2023-03-15T15:00:25;13.20;37.90
76263;DHT22;65080;50.908;6.916;2023-03-15T15:02:56;13.20;37.50
76263;DHT22;65080;50.908;6.916;2023-03-15T15:05:26;13.20;37.50
76263;DHT22;65080;50.908;6.916;2023-03-15T15:08:00;13.00;37.60
76263;DHT22;65080;50.908;6.916;2023-03-15T15:10:30;13.00;37.70
76263;DHT22;65080;50.908;6.916;2023-03-15T15:13:00;13.10;38.00
76263;DHT22;65080;50.908;6.916;2023-03-15T15:15:33;13.10;38.10
76263;DHT22;65080;50.908;6.916;2023-03-15T15:18:23;13.20;38.00
76263;DHT22;65080;50.908;6.916;2023-03-15T15:20:52;13.30;38.20
76263;DHT22;65080;50.908;6.916;2023-03-15T15:23:24;13.40;38.00
76263;DHT22;65080;50.908;6.916;2023-03-15T15:25:56;13.40;37.80
76263;DHT22;65080;50.908;6.916;2023-03-15T15:28:24;13.50;37.50
76263;DHT22;65080;50.908;6.916;2023-03-15T15:31:03;13.50;37.30
76263;DHT22;65080;50.908;6.916;2023-03-15T15:33:33;13.50;37.30
76263;DHT22;65080;50.908;6.916;2023-03-15T15:36:01;13.60;37.20
76263;DHT22;65080;50.908;6.916;2023-03-15T15:38:32;13.60;36.70
76263;DHT22;65080;50.908;6.916;2023-03-15T15:41:09;13.60;36.20
76263;DHT22;65080;50.908;6.916;2023-03-15T15:43:39;13.70;36.20
76263;DHT22;65080;50.908;6.916;2023-03-15T15:46:09;13.70;36.00
76263;DHT22;65080;50.908;6.916;2023-03-15T15:48:39;13.70;35.80
76263;DHT22;65080;50.908;6.916;2023-03-15T15:51:25;13.60;35.90
76263;DHT22;65080;50.908;6.916;2023-03-15T15:53:56;13.60;36.00
76263;DHT22;65080;50.908;6.916;2023-03-15T15:56:30;13.60;36.10
76263;DHT22;65080;50.908;6.916;2023-03-15T15:59:00;13.60;36.00
76263;DHT22;65080;50.908;6.916;2023-03-15T16:01:31;13.60;36.00
76263;DHT22;65080;50.908;6.916;2023-03-15T16:04:01;13.50;35.90
76263;DHT22;65080;50.908;6.916;2023-03-15T16:06:30;13.50;36.30
76263;DHT22;65080;50.908;6.916;2023-03-15T16:08:58;13.40;36.00
76263;DHT22;65080;50.908;6.916;2023-03-15T16:11:27;13.20;35.70
76263;DHT22;65080;50.908;6.916;2023-03-15T16:13:56;13.10;35.60